createdAt,value
2023-05-21T00:00:47.666Z,0.00
2023-05-21T00:01:47.820Z,0.00
2023-05-21T00:02:47.722Z,0.00
2023-05-21T00:03:47.773Z,0.00
2023-05-21T00:04:47.619Z,0.00
2023-05-21T00:05:47.740Z,0.00
2023-05-21T00:06:47.626Z,0.00
2023-05-21T00:07:47.640Z,0.00
2023-05-21T00:08:47.534Z,0.00
2023-05-21T00:09:47.546Z,0.00
2023-05-21T00:10:47.575Z,0.00
2023-05-21T00:11:47.709Z,0.00
2023-05-21T00:12:47.472Z,0.00
2023-05-21T00:13:47.742Z,0.00
2023-05-21T00:14:47.582Z,0.00
2023-05-21T00:15:47.550Z,0.00
2023-05-21T00:16:47.808Z,0.00
2023-05-21T00:17:47.759Z,0.00
2023-05-21T00:18:47.547Z,0.00
2023-05-21T00:19:47.499Z,0.00
2023-05-21T00:20:47.461Z,0.00
2023-05-21T00:21:47.378Z,0.00
2023-05-21T00:22:47.609Z,0.00
2023-05-21T00:23:47.392Z,0.00
2023-05-21T00:24:47.582Z,0.00
2023-05-21T00:25:47.275Z,0.00
2023-05-21T00:26:47.345Z,0.00
2023-05-21T00:27:47.382Z,0.00
2023-05-21T00:28:47.360Z,0.00
2023-05-21T00:29:48.332Z,0.00
2023-05-21T00:30:47.294Z,0.00
2023-05-21T00:31:47.294Z,0.00
2023-05-21T00:32:47.614Z,0.00
2023-05-21T00:33:47.234Z,0.00
2023-05-21T00:34:47.323Z,0.00
2023-05-21T00:35:47.364Z,0.00
2023-05-21T00:36:47.209Z,0.00
2023-05-21T00:37:47.287Z,0.00
2023-05-21T00:38:47.305Z,0.00
2023-05-21T00:39:47.412Z,0.00
2023-05-21T00:40:47.134Z,0.00
2023-05-21T00:41:47.223Z,0.00
2023-05-21T00:42:47.237Z,0.00
2023-05-21T00:43:47.451Z,0.00
2023-05-21T00:44:47.198Z,0.00
2023-05-21T00:45:47.242Z,0.00
2023-05-21T00:46:47.122Z,0.00
2023-05-21T00:47:47.050Z,0.00
2023-05-21T00:48:47.147Z,0.00
2023-05-21T00:49:47.175Z,0.00
2023-05-21T00:50:47.195Z,0.00
2023-05-21T00:51:47.107Z,0.00
2023-05-21T00:52:47.114Z,0.00
2023-05-21T00:53:47.172Z,0.00
2023-05-21T00:54:47.030Z,0.00
2023-05-21T00:55:47.006Z,0.00
2023-05-21T00:56:46.978Z,0.00
2023-05-21T00:57:47.148Z,0.00
2023-05-21T00:58:47.100Z,0.00
2023-05-21T00:59:46.947Z,0.00
2023-05-21T01:00:46.994Z,0.00
2023-05-21T01:01:47.052Z,0.00
2023-05-21T01:02:47.216Z,0.00
2023-05-21T01:03:46.966Z,0.00
2023-05-21T01:04:47.034Z,0.00
2023-05-21T01:05:47.043Z,0.00
2023-05-21T01:06:46.905Z,0.00
2023-05-21T01:07:46.922Z,0.00
2023-05-21T01:08:47.067Z,0.00
2023-05-21T01:09:46.816Z,0.00
2023-05-21T01:10:46.830Z,0.00
2023-05-21T01:11:46.904Z,0.00
2023-05-21T01:12:46.766Z,0.00
2023-05-21T01:13:46.855Z,0.00
2023-05-21T01:14:46.827Z,0.00
2023-05-21T01:15:46.796Z,0.00
2023-05-21T01:16:46.872Z,0.00
2023-05-21T01:17:46.863Z,0.00
2023-05-21T01:18:46.855Z,0.00
2023-05-21T01:19:46.831Z,0.00
2023-05-21T01:20:46.978Z,0.00
2023-05-21T01:21:46.649Z,0.00
2023-05-21T01:22:46.636Z,0.00
2023-05-21T01:23:46.715Z,0.00
2023-05-21T01:24:46.789Z,0.00
2023-05-21T01:25:46.768Z,0.00
2023-05-21T01:26:46.682Z,0.00
2023-05-21T01:27:46.768Z,0.00
2023-05-21T01:28:46.809Z,0.00
2023-05-21T01:29:46.756Z,0.00
2023-05-21T01:30:46.717Z,0.00
2023-05-21T01:31:46.648Z,0.00
2023-05-21T01:32:46.805Z,0.00
2023-05-21T01:33:46.648Z,0.00
2023-05-21T01:34:46.720Z,0.00
2023-05-21T01:35:46.557Z,0.00
2023-05-21T01:36:46.656Z,0.00
2023-05-21T01:37:46.720Z,0.00
2023-05-21T01:38:46.605Z,0.00
2023-05-21T01:39:46.637Z,0.00
2023-05-21T01:40:46.461Z,0.00
2023-05-21T01:41:46.671Z,0.00
2023-05-21T01:42:46.564Z,0.00
2023-05-21T01:43:46.714Z,0.00
2023-05-21T01:44:46.687Z,0.00
2023-05-21T01:45:46.521Z,0.00
2023-05-21T01:46:46.739Z,0.00
2023-05-21T01:47:46.646Z,0.00
2023-05-21T01:48:46.555Z,0.00
2023-05-21T01:49:46.498Z,0.00
2023-05-21T01:50:46.568Z,0.00
2023-05-21T01:51:46.581Z,0.00
2023-05-21T01:52:46.566Z,0.00
2023-05-21T01:53:46.460Z,0.00
2023-05-21T01:54:46.554Z,0.00
2023-05-21T01:55:46.481Z,0.00
2023-05-21T01:56:46.483Z,0.00
2023-05-21T01:57:46.553Z,0.00
2023-05-21T01:58:46.438Z,0.00
2023-05-21T01:59:46.422Z,0.00
2023-05-21T02:00:46.387Z,0.00
2023-05-21T02:01:46.491Z,0.00
2023-05-21T02:02:46.630Z,0.00
2023-05-21T02:03:46.413Z,0.00
2023-05-21T02:04:46.466Z,0.00
2023-05-21T02:05:46.465Z,0.00
2023-05-21T02:06:46.361Z,0.00
2023-05-21T02:07:46.414Z,0.00
2023-05-21T02:08:46.329Z,0.00
2023-05-21T02:09:46.369Z,0.00
2023-05-21T02:10:46.278Z,0.00
2023-05-21T02:11:46.221Z,0.00
2023-05-21T02:12:46.348Z,0.00
2023-05-21T02:13:46.390Z,0.00
2023-05-21T02:14:46.410Z,0.00
2023-05-21T02:15:46.399Z,0.00
2023-05-21T02:16:46.404Z,0.00
2023-05-21T02:17:46.381Z,0.00
2023-05-21T02:18:46.455Z,0.00
2023-05-21T02:19:46.190Z,0.00
2023-05-21T02:20:46.155Z,0.00
2023-05-21T02:21:46.259Z,0.00
2023-05-21T02:22:46.219Z,0.00
2023-05-21T02:23:46.241Z,0.00
2023-05-21T02:24:46.262Z,0.00
2023-05-21T02:25:46.174Z,0.00
2023-05-21T02:26:46.105Z,0.00
2023-05-21T02:27:46.078Z,0.00
2023-05-21T02:28:46.061Z,0.00
2023-05-21T02:29:46.243Z,0.00
2023-05-21T02:30:46.083Z,0.00
2023-05-21T02:31:46.020Z,0.00
2023-05-21T02:32:46.098Z,0.00
2023-05-21T02:33:46.083Z,0.00
2023-05-21T02:34:46.059Z,0.00
2023-05-21T02:35:46.019Z,0.00
2023-05-21T02:36:46.113Z,0.00
2023-05-21T02:37:46.048Z,0.00
2023-05-21T02:38:46.037Z,0.00
2023-05-21T02:39:46.004Z,0.00
2023-05-21T02:40:45.937Z,0.00
2023-05-21T02:41:45.993Z,0.00
2023-05-21T02:42:46.103Z,0.00
2023-05-21T02:43:46.195Z,0.00
2023-05-21T02:44:46.057Z,0.00
2023-05-21T02:45:46.173Z,0.00
2023-05-21T02:46:46.045Z,0.00
2023-05-21T02:47:46.004Z,0.00
2023-05-21T02:48:46.028Z,0.00
2023-05-21T02:49:46.003Z,0.00
2023-05-21T02:50:45.961Z,0.00
2023-05-21T02:51:46.881Z,0.00
2023-05-21T02:52:45.920Z,0.00
2023-05-21T02:53:45.928Z,0.00
2023-05-21T02:54:45.810Z,0.00
2023-05-21T02:55:45.791Z,0.00
2023-05-21T02:56:45.851Z,0.00
2023-05-21T02:57:45.863Z,0.00
2023-05-21T02:58:45.869Z,0.00
2023-05-21T02:59:45.796Z,0.00
2023-05-21T03:00:45.896Z,0.00
2023-05-21T03:01:45.836Z,0.00
2023-05-21T03:02:45.826Z,0.00
2023-05-21T03:03:45.836Z,0.00
2023-05-21T03:04:45.816Z,0.00
2023-05-21T03:05:45.853Z,0.00
2023-05-21T03:06:45.699Z,0.00
2023-05-21T03:07:45.809Z,0.00
2023-05-21T03:08:45.684Z,0.00
2023-05-21T03:09:45.751Z,0.00
2023-05-21T03:10:45.873Z,0.00
2023-05-21T03:11:45.774Z,0.00
2023-05-21T03:12:45.750Z,0.00
2023-05-21T03:13:45.759Z,0.00
2023-05-21T03:14:45.688Z,0.00
2023-05-21T03:15:45.634Z,0.00
2023-05-21T03:16:45.763Z,0.00
2023-05-21T03:17:45.703Z,0.00
2023-05-21T03:18:45.604Z,0.00
2023-05-21T03:19:45.669Z,0.00
2023-05-21T03:20:45.531Z,0.00
2023-05-21T03:21:45.621Z,0.00
2023-05-21T03:22:45.608Z,0.00
2023-05-21T03:23:45.505Z,0.00
2023-05-21T03:24:45.528Z,0.00
2023-05-21T03:25:45.530Z,0.00
2023-05-21T03:26:45.612Z,0.00
2023-05-21T03:27:45.589Z,0.00
2023-05-21T03:28:45.667Z,0.00
2023-05-21T03:29:45.704Z,0.00
2023-05-21T03:30:45.467Z,0.00
2023-05-21T03:31:45.612Z,0.00
2023-05-21T03:32:45.545Z,0.00
2023-05-21T03:33:45.456Z,0.00
2023-05-21T03:34:45.498Z,5.62
2023-05-21T03:35:45.528Z,5.62
2023-05-21T03:36:45.524Z,5.62
2023-05-21T03:37:45.290Z,5.62
2023-05-21T03:38:45.356Z,5.62
2023-05-21T03:39:45.425Z,5.62
2023-05-21T03:40:45.332Z,5.62
2023-05-21T03:41:45.369Z,5.62
2023-05-21T03:42:45.326Z,5.62
2023-05-21T03:43:45.217Z,5.62
2023-05-21T03:44:45.438Z,11.25
2023-05-21T03:45:45.389Z,11.25
2023-05-21T03:46:45.211Z,11.25
2023-05-21T03:47:45.362Z,11.25
2023-05-21T03:48:45.326Z,11.25
2023-05-21T03:49:45.344Z,11.25
2023-05-21T03:50:45.418Z,11.25
2023-05-21T03:51:45.456Z,11.25
2023-05-21T03:52:45.129Z,11.25
2023-05-21T03:53:45.242Z,16.88
2023-05-21T03:54:45.220Z,16.88
2023-05-21T03:55:45.278Z,16.88
2023-05-21T03:56:45.226Z,16.88
2023-05-21T03:57:45.397Z,16.88
2023-05-21T03:58:45.501Z,16.88
2023-05-21T03:59:45.202Z,16.88
2023-05-21T04:00:45.279Z,16.88
2023-05-21T04:01:45.314Z,16.88
2023-05-21T04:02:45.207Z,22.50
2023-05-21T04:03:45.332Z,22.50
2023-05-21T04:04:45.127Z,22.50
2023-05-21T04:05:45.209Z,22.50
2023-05-21T04:06:45.108Z,22.50
2023-05-21T04:07:45.129Z,22.50
2023-05-21T04:08:45.138Z,22.50
2023-05-21T04:09:45.084Z,22.50
2023-05-21T04:10:45.036Z,22.50
2023-05-21T04:11:45.129Z,28.12
2023-05-21T04:12:45.200Z,28.12
2023-05-21T04:13:45.109Z,28.12
2023-05-21T04:14:45.277Z,28.12
2023-05-21T04:15:45.353Z,28.12
2023-05-21T04:16:45.235Z,28.12
2023-05-21T04:17:45.219Z,28.12
2023-05-21T04:18:45.845Z,33.75
2023-05-21T04:19:46.126Z,33.75
2023-05-21T04:20:45.221Z,33.75
2023-05-21T04:21:45.062Z,33.75
2023-05-21T04:22:44.903Z,33.75
2023-05-21T04:23:45.097Z,33.75
2023-05-21T04:24:44.977Z,39.38
2023-05-21T04:25:44.866Z,39.38
2023-05-21T04:26:44.996Z,39.38
2023-05-21T04:27:44.901Z,39.38
2023-05-21T04:28:44.958Z,39.38
2023-05-21T04:29:44.983Z,39.38
2023-05-21T04:30:44.970Z,45.00
2023-05-21T04:31:44.880Z,45.00
2023-05-21T04:32:44.965Z,45.00
2023-05-21T04:33:44.827Z,45.00
2023-05-21T04:34:44.910Z,45.00
2023-05-21T04:35:44.881Z,45.00
2023-05-21T04:36:44.831Z,50.62
2023-05-21T04:37:45.022Z,50.62
2023-05-21T04:38:44.767Z,50.62
2023-05-21T04:39:44.715Z,50.62
2023-05-21T04:40:44.743Z,50.62
2023-05-21T04:41:44.705Z,50.62
2023-05-21T04:42:44.761Z,50.62
2023-05-21T04:43:44.738Z,56.25
2023-05-21T04:44:44.852Z,56.25
2023-05-21T04:45:44.755Z,56.25
2023-05-21T04:46:44.773Z,56.25
2023-05-21T04:47:44.642Z,56.25
2023-05-21T04:48:44.701Z,56.25
2023-05-21T04:49:44.741Z,61.88
2023-05-21T04:50:44.619Z,61.88
2023-05-21T04:51:44.694Z,61.88
2023-05-21T04:52:44.622Z,61.88
2023-05-21T04:53:44.666Z,61.88
2023-05-21T04:54:44.750Z,67.50
2023-05-21T04:55:44.562Z,67.50
2023-05-21T04:56:44.645Z,67.50
2023-05-21T04:57:44.573Z,67.50
2023-05-21T04:58:44.616Z,67.50
2023-05-21T04:59:44.671Z,67.50
2023-05-21T05:00:44.625Z,67.50
2023-05-21T05:01:44.560Z,67.50
2023-05-21T05:02:44.786Z,67.50
2023-05-21T05:03:44.624Z,73.12
2023-05-21T05:04:44.546Z,73.12
2023-05-21T05:05:44.546Z,73.12
2023-05-21T05:06:44.496Z,78.75
2023-05-21T05:07:44.569Z,78.75
2023-05-21T05:08:44.565Z,78.75
2023-05-21T05:09:44.578Z,78.75
2023-05-21T05:10:44.406Z,78.75
2023-05-21T05:11:44.441Z,84.38
2023-05-21T05:12:44.615Z,84.38
2023-05-21T05:13:44.415Z,84.38
2023-05-21T05:14:44.394Z,84.38
2023-05-21T05:15:44.438Z,84.38
2023-05-21T05:16:44.387Z,84.38
2023-05-21T05:17:44.625Z,90.00
2023-05-21T05:18:44.420Z,90.00
2023-05-21T05:19:44.344Z,90.00
2023-05-21T05:20:44.348Z,90.00
2023-05-21T05:21:44.362Z,90.00
2023-05-21T05:22:44.314Z,90.00
2023-05-21T05:23:44.359Z,90.00
2023-05-21T05:24:44.319Z,90.00
2023-05-21T05:25:44.314Z,90.00
2023-05-21T05:26:44.346Z,95.62
2023-05-21T05:27:44.433Z,95.62
2023-05-21T05:28:44.230Z,95.62
2023-05-21T05:29:44.357Z,95.62
2023-05-21T05:30:44.161Z,95.62
2023-05-21T05:31:44.368Z,101.25
2023-05-21T05:32:44.203Z,101.25
2023-05-21T05:33:44.318Z,101.25
2023-05-21T05:34:44.146Z,101.25
2023-05-21T05:35:44.175Z,106.88
2023-05-21T05:36:44.332Z,106.88
2023-05-21T05:37:44.256Z,101.25
2023-05-21T05:38:44.150Z,101.25
2023-05-21T05:39:44.308Z,101.25
2023-05-21T05:40:44.124Z,101.25
2023-05-21T05:41:44.175Z,101.25
2023-05-21T05:42:44.044Z,101.25
2023-05-21T05:43:44.106Z,101.25
2023-05-21T05:44:44.162Z,101.25
2023-05-21T05:45:44.081Z,101.25
2023-05-21T05:47:25.055Z,101.25
2023-05-21T05:48:01.213Z,101.25
2023-05-21T05:49:25.258Z,106.88
2023-05-21T05:50:32.332Z,106.88
2023-05-21T05:50:52.141Z,106.88
2023-05-21T05:51:44.285Z,106.88
2023-05-21T05:52:45.062Z,106.88
2023-05-21T05:55:09.101Z,106.88
2023-05-21T05:57:18.246Z,106.88
2023-05-21T05:59:58.817Z,112.50
2023-05-21T06:00:58.237Z,112.50
2023-05-21T06:05:42.074Z,123.75
2023-05-21T06:07:38.110Z,123.75
2023-05-21T06:09:39.056Z,129.38
2023-05-21T06:12:14.617Z,129.38
2023-05-21T06:13:11.369Z,129.38
2023-05-21T06:14:17.146Z,129.38
2023-05-21T06:15:27.147Z,129.38
2023-05-21T06:16:42.442Z,135.00
2023-05-21T06:23:55.819Z,146.25
2023-05-21T06:25:27.369Z,146.25
2023-05-21T06:26:21.098Z,146.25
2023-05-21T06:30:28.813Z,157.50
2023-05-21T06:50:00.374Z,208.12
2023-05-21T06:54:39.419Z,219.38
2023-05-21T06:55:57.553Z,225.00
2023-05-21T07:01:03.572Z,225.00
2023-05-21T07:03:41.533Z,225.00
2023-05-21T07:06:26.533Z,236.25
2023-05-21T07:07:43.019Z,236.25
2023-05-21T07:14:30.951Z,230.62
2023-05-21T07:17:01.741Z,230.62
2023-05-21T07:18:21.398Z,230.62
2023-05-21T07:22:00.589Z,236.25
2023-05-21T07:30:43.335Z,241.88
2023-05-21T07:32:01.663Z,236.25
2023-05-21T07:32:46.073Z,241.88
2023-05-21T07:36:50.835Z,225.00
2023-05-21T07:43:46.342Z,213.75
2023-05-21T07:44:46.798Z,219.38
2023-05-21T07:47:12.175Z,230.62
2023-05-21T07:50:18.901Z,247.50
2023-05-21T07:51:27.367Z,247.50
2023-05-21T07:53:23.270Z,258.75
2023-05-21T07:57:02.996Z,253.12
2023-05-21T07:58:20.225Z,247.50
2023-05-21T08:00:17.781Z,247.50
2023-05-21T08:00:21.772Z,247.50
2023-05-21T08:02:27.286Z,253.12
2023-05-21T08:06:12.994Z,258.75
2023-05-21T08:10:51.876Z,258.75
2023-05-21T08:14:32.258Z,270.00
2023-05-21T08:16:58.686Z,264.38
2023-05-21T08:18:09.051Z,264.38
2023-05-21T08:19:07.550Z,270.00
2023-05-21T08:20:08.459Z,270.00
2023-05-21T08:20:59.106Z,270.00
2023-05-21T08:21:59.804Z,264.38
2023-05-21T08:23:03.893Z,264.38
2023-05-21T08:24:18.549Z,264.38
2023-05-21T08:27:33.195Z,247.50
2023-05-21T08:30:55.976Z,236.25
2023-05-21T08:34:45.192Z,225.00
2023-05-21T08:40:35.439Z,202.50
2023-05-21T08:43:11.416Z,196.88
2023-05-21T08:44:31.905Z,196.88
2023-05-21T08:47:11.259Z,191.25
2023-05-21T08:48:27.293Z,191.25
2023-05-21T08:54:50.791Z,191.25
2023-05-21T08:56:12.115Z,196.88
2023-05-21T08:57:00.346Z,196.88
2023-05-21T09:04:30.410Z,185.62
2023-05-21T09:14:03.606Z,196.88
2023-05-21T09:18:10.274Z,208.12
2023-05-21T09:19:58.459Z,213.75
2023-05-21T09:20:56.884Z,219.38
2023-05-21T09:22:59.444Z,225.00
2023-05-21T09:28:37.726Z,230.62
2023-05-21T09:35:18.366Z,247.50
2023-05-21T09:36:55.133Z,247.50
2023-05-21T09:37:58.957Z,253.12
2023-05-21T09:39:04.088Z,258.75
2023-05-21T09:42:06.048Z,264.38
2023-05-21T09:45:50.559Z,264.38
2023-05-21T09:53:41.644Z,281.25
2023-05-21T09:57:58.947Z,292.50
2023-05-21T10:02:22.892Z,298.12
2023-05-21T10:04:41.736Z,292.50
2023-05-21T10:06:11.644Z,303.75
2023-05-21T10:13:53.528Z,326.25
2023-05-21T10:16:25.662Z,337.50
2023-05-21T10:21:08.314Z,343.12
2023-05-21T10:22:17.107Z,343.12
2023-05-21T10:23:49.066Z,343.12
2023-05-21T10:24:13.634Z,348.75
2023-05-21T10:29:15.009Z,343.12
2023-05-21T10:30:23.356Z,348.75
2023-05-21T10:34:50.312Z,360.00
2023-05-21T10:36:01.557Z,348.75
2023-05-21T10:38:20.896Z,348.75
2023-05-21T10:39:27.956Z,360.00
2023-05-21T10:49:12.086Z,427.50
2023-05-21T10:50:48.173Z,405.00
2023-05-21T10:51:14.036Z,376.88
2023-05-21T10:54:39.065Z,371.25
2023-05-21T10:59:08.179Z,360.00
2023-05-21T11:01:35.473Z,348.75
2023-05-21T11:02:44.426Z,348.75
2023-05-21T11:03:37.850Z,348.75
2023-05-21T11:08:42.573Z,354.38
2023-05-21T11:09:46.526Z,348.75
2023-05-21T11:10:43.621Z,348.75
2023-05-21T11:12:19.242Z,343.12
2023-05-21T11:13:17.897Z,337.50
2023-05-21T11:14:10.249Z,331.88
2023-05-21T11:14:57.816Z,326.25
2023-05-21T11:21:08.210Z,331.88
2023-05-21T11:22:10.457Z,348.75
2023-05-21T11:28:46.880Z,433.12
2023-05-21T11:29:47.334Z,433.12
2023-05-21T11:33:48.359Z,450.00
2023-05-21T11:36:53.838Z,421.88
2023-05-21T11:37:53.755Z,416.25
2023-05-21T11:38:53.972Z,416.25
2023-05-21T11:39:53.902Z,399.38
2023-05-21T11:47:07.016Z,405.00
2023-05-21T11:48:07.100Z,405.00
2023-05-21T11:49:06.857Z,405.00
2023-05-21T11:50:06.990Z,405.00
2023-05-21T11:51:06.838Z,393.75
2023-05-21T11:52:06.776Z,399.38
2023-05-21T11:53:06.760Z,388.12
2023-05-21T11:54:06.757Z,388.12
2023-05-21T11:55:06.825Z,382.50
2023-05-21T11:56:06.774Z,376.88
2023-05-21T11:57:08.083Z,343.12
2023-05-21T11:58:07.981Z,343.12
2023-05-21T11:59:07.943Z,360.00
2023-05-21T12:00:07.944Z,354.38
2023-05-21T12:01:07.984Z,354.38
2023-05-21T12:02:07.952Z,354.38
2023-05-21T12:03:08.015Z,348.75
2023-05-21T12:04:08.058Z,354.38
2023-05-21T12:05:07.873Z,354.38
2023-05-21T12:06:07.995Z,343.12
2023-05-21T12:07:07.812Z,348.75
2023-05-21T12:08:08.105Z,365.62
2023-05-21T12:09:07.805Z,365.62
2023-05-21T12:10:07.825Z,365.62
2023-05-21T12:11:08.110Z,388.12
2023-05-21T12:12:07.773Z,399.38
2023-05-21T12:13:07.785Z,405.00
2023-05-21T12:14:07.946Z,393.75
2023-05-21T12:15:07.780Z,382.50
2023-05-21T12:16:07.793Z,393.75
2023-05-21T12:17:07.684Z,405.00
2023-05-21T12:18:07.929Z,405.00
2023-05-21T12:19:07.878Z,421.88
2023-05-21T12:20:07.818Z,399.38
2023-05-21T12:21:07.723Z,371.25
2023-05-21T12:22:07.699Z,382.50
2023-05-21T12:23:07.731Z,393.75
2023-05-21T12:24:07.934Z,393.75
2023-05-21T12:25:07.644Z,393.75
2023-05-21T12:26:07.649Z,399.38
2023-05-21T12:27:07.790Z,399.38
2023-05-21T12:28:07.606Z,393.75
2023-05-21T12:29:07.592Z,399.38
2023-05-21T12:30:07.743Z,410.62
2023-05-21T12:31:07.554Z,405.00
2023-05-21T12:32:07.787Z,416.25
2023-05-21T12:33:07.601Z,421.88
2023-05-21T12:34:07.598Z,427.50
2023-05-21T12:35:07.567Z,433.12
2023-05-21T12:36:07.543Z,427.50
2023-05-21T12:37:07.524Z,427.50
2023-05-21T12:38:07.565Z,444.38
2023-05-21T12:39:09.345Z,444.38
2023-05-21T12:40:07.545Z,450.00
2023-05-21T12:41:07.549Z,461.25
2023-05-21T12:42:07.526Z,478.12
2023-05-21T12:43:07.445Z,478.12
2023-05-21T12:44:07.979Z,461.25
2023-05-21T12:45:07.424Z,461.25
2023-05-21T12:46:07.659Z,438.75
2023-05-21T12:47:07.759Z,427.50
2023-05-21T12:48:07.498Z,466.88
2023-05-21T12:49:07.417Z,489.38
2023-05-21T12:50:07.574Z,500.62
2023-05-21T12:51:07.580Z,483.75
2023-05-21T12:52:07.514Z,472.50
2023-05-21T12:53:07.333Z,472.50
2023-05-21T12:54:07.356Z,455.62
2023-05-21T12:55:09.394Z,450.00
2023-05-21T12:56:07.306Z,455.62
2023-05-21T12:57:07.384Z,455.62
2023-05-21T12:58:07.272Z,450.00
2023-05-21T12:59:07.394Z,455.62
2023-05-21T13:00:07.367Z,461.25
2023-05-21T13:01:07.356Z,455.62
2023-05-21T13:02:07.358Z,433.12
2023-05-21T13:03:07.482Z,421.88
2023-05-21T13:04:07.321Z,416.25
2023-05-21T13:05:07.324Z,405.00
2023-05-21T13:06:07.743Z,399.38
2023-05-21T13:07:07.331Z,399.38
2023-05-21T13:08:07.403Z,399.38
2023-05-21T13:09:07.297Z,393.75
2023-05-21T13:10:07.167Z,393.75
2023-05-21T13:11:07.372Z,388.12
2023-05-21T13:12:07.205Z,388.12
2023-05-21T13:13:07.318Z,393.75
2023-05-21T13:14:07.179Z,388.12
2023-05-21T13:15:07.253Z,382.50
2023-05-21T13:16:07.160Z,371.25
2023-05-21T13:17:07.151Z,365.62
2023-05-21T13:18:07.165Z,360.00
2023-05-21T13:19:07.238Z,365.62
2023-05-21T13:20:07.519Z,376.88
2023-05-21T13:21:07.169Z,388.12
2023-05-21T13:22:07.165Z,416.25
2023-05-21T13:23:09.036Z,427.50
2023-05-21T13:24:07.173Z,433.12
2023-05-21T13:25:07.013Z,433.12
2023-05-21T13:26:07.065Z,444.38
2023-05-21T13:27:07.029Z,455.62
2023-05-21T13:28:07.040Z,444.38
2023-05-21T13:29:07.173Z,433.12
2023-05-21T13:30:07.025Z,427.50
2023-05-21T13:31:07.056Z,427.50
2023-05-21T13:32:07.194Z,427.50
2023-05-21T13:33:06.999Z,427.50
2023-05-21T13:34:07.096Z,450.00
2023-05-21T13:35:06.948Z,466.88
2023-05-21T13:36:06.968Z,478.12
2023-05-21T13:37:07.013Z,478.12
2023-05-21T13:38:06.909Z,489.38
2023-05-21T13:39:06.927Z,483.75
2023-05-21T13:40:07.008Z,472.50
2023-05-21T13:41:07.275Z,461.25
2023-05-21T13:42:06.957Z,466.88
2023-05-21T13:43:06.882Z,500.62
2023-05-21T13:44:06.939Z,523.12
2023-05-21T13:45:06.823Z,540.00
2023-05-21T13:46:06.971Z,551.25
2023-05-21T13:47:06.903Z,573.75
2023-05-21T13:48:07.079Z,590.62
2023-05-21T13:49:06.847Z,613.12
2023-05-21T13:50:06.891Z,568.12
2023-05-21T13:51:06.822Z,641.25
2023-05-21T13:52:06.837Z,675.00
2023-05-21T13:53:06.773Z,680.62
2023-05-21T13:54:39.536Z,691.88
2023-05-21T13:55:07.103Z,624.38
2023-05-21T13:56:06.947Z,630.00
2023-05-21T13:57:06.743Z,675.00
2023-05-21T13:58:06.750Z,556.88
2023-05-21T13:59:06.753Z,534.38
2023-05-21T14:00:06.844Z,635.62
2023-05-21T14:01:06.782Z,680.62
2023-05-21T14:02:06.919Z,810.00
2023-05-21T14:03:06.941Z,630.00
2023-05-21T14:04:06.978Z,579.38
2023-05-21T14:05:06.909Z,1029.38
2023-05-21T14:06:06.661Z,624.38
2023-05-21T14:07:06.673Z,523.12
2023-05-21T14:08:06.715Z,483.75
2023-05-21T14:09:06.701Z,455.62
2023-05-21T14:10:41.771Z,500.62
2023-05-21T14:11:06.896Z,506.25
2023-05-21T14:12:40.263Z,590.62
2023-05-21T14:13:40.241Z,590.62
2023-05-21T14:14:40.623Z,596.25
2023-05-21T14:15:39.281Z,601.88
2023-05-21T14:16:33.278Z,669.38
2023-05-21T14:17:06.905Z,675.00
2023-05-21T14:18:40.584Z,680.62
2023-05-21T14:19:39.611Z,708.75
2023-05-21T14:20:39.416Z,691.88
2023-05-21T14:21:39.755Z,686.25
2023-05-21T14:22:07.282Z,731.25
2023-05-21T14:23:07.036Z,697.50
2023-05-21T14:24:39.216Z,860.62
2023-05-21T14:25:39.213Z,1153.12
2023-05-21T14:26:39.298Z,1057.50
2023-05-21T14:27:34.491Z,1001.25
2023-05-21T14:28:07.140Z,860.62
2023-05-21T14:29:07.041Z,562.50
2023-05-21T14:30:06.450Z,399.38
2023-05-21T14:31:06.550Z,348.75
2023-05-21T14:32:40.756Z,309.38
2023-05-21T14:33:07.476Z,270.00
2023-05-21T14:34:39.145Z,253.12
2023-05-21T14:35:39.171Z,247.50
2023-05-21T14:36:40.271Z,247.50
2023-05-21T14:37:44.060Z,258.75
2023-05-21T14:38:39.767Z,264.38
2023-05-21T14:41:06.502Z,264.38
2023-05-21T14:43:33.453Z,219.38
2023-05-21T14:44:49.195Z,208.12
2023-05-21T14:46:14.629Z,185.62
2023-05-21T14:46:35.656Z,174.38
2023-05-21T14:48:08.204Z,174.38
2023-05-21T14:49:08.964Z,174.38
2023-05-21T14:49:36.181Z,168.75
2023-05-21T14:51:08.596Z,180.00
2023-05-21T14:51:34.895Z,185.62
2023-05-21T14:52:35.437Z,185.62
2023-05-21T14:54:07.583Z,191.25
2023-05-21T14:54:38.398Z,196.88
2023-05-21T14:55:37.200Z,213.75
2023-05-21T14:56:35.273Z,225.00
2023-05-21T14:57:34.525Z,241.88
2023-05-21T14:58:34.514Z,236.25
2023-05-21T14:59:34.743Z,241.88
2023-05-21T15:00:36.108Z,258.75
2023-05-21T15:02:01.281Z,281.25
2023-05-21T15:02:35.005Z,298.12
2023-05-21T15:04:17.953Z,427.50
2023-05-21T15:04:43.835Z,253.12
2023-05-21T15:06:09.484Z,225.00
2023-05-21T15:07:06.799Z,196.88
2023-05-21T15:08:01.870Z,185.62
2023-05-21T15:08:34.389Z,168.75
2023-05-21T15:09:34.182Z,157.50
2023-05-21T15:11:10.373Z,157.50
2023-05-21T15:12:55.252Z,151.88
2023-05-21T15:15:54.096Z,174.38
2023-05-21T15:16:53.912Z,168.75
2023-05-21T15:20:05.801Z,185.62
2023-05-21T15:21:05.788Z,208.12
2023-05-21T15:22:05.826Z,219.38
2023-05-21T15:23:15.893Z,230.62
2023-05-21T15:24:06.705Z,241.88
2023-05-21T15:25:05.676Z,230.62
2023-05-21T15:26:05.729Z,213.75
2023-05-21T15:27:05.640Z,208.12
2023-05-21T15:28:15.550Z,191.25
2023-05-21T15:30:53.826Z,157.50
2023-05-21T15:32:01.591Z,151.88
2023-05-21T15:33:02.571Z,146.25
2023-05-21T15:34:01.612Z,140.62
2023-05-21T15:34:54.002Z,135.00
2023-05-21T15:36:01.744Z,129.38
2023-05-21T15:36:53.850Z,118.12
2023-05-21T15:37:53.989Z,112.50
2023-05-21T15:41:47.849Z,90.00
2023-05-21T15:42:47.882Z,90.00
2023-05-21T15:43:55.615Z,84.38
2023-05-21T15:49:01.156Z,73.12
2023-05-21T15:56:44.211Z,73.12
